Time;durP1;ratioP1;P1;durP2;ratioP2;P2;SDS_P1;SDS_P2;PMS_P1;PMS_P2;Temp;Humidity;BMP_temperature;BMP_pressure;BME280_temperature;BME280_humidity;BME280_pressure;Samples;Min_cycle;Max_cycle;Signal;HPM_P1;HPM_P2
2023/12/05 00:00:30;;;;;;;19.80;12.77;;;-1.00;99.90;;;;;;5081784;28;20231;-64
2023/12/05 00:02:58;;;;;;;18.63;12.33;;;-1.00;99.90;;;;;;5068285;28;20298;-65
2023/12/05 00:05:25;;;;;;;16.50;12.10;;;-1.00;99.90;;;;;;5068874;28;20291;-64
2023/12/05 00:07:52;;;;;;;15.80;11.53;;;-1.00;99.90;;;;;;5068274;28;20678;-64
2023/12/05 00:10:18;;;;;;;17.43;12.03;;;-1.00;99.90;;;;;;5073892;28;20183;-64
2023/12/05 00:12:46;;;;;;;16.67;11.97;;;-1.00;99.90;;;;;;5088298;28;20202;-65
2023/12/05 00:15:12;;;;;;;17.77;12.10;;;-1.00;99.90;;;;;;5088585;28;20209;-64
2023/12/05 00:17:39;;;;;;;16.20;12.00;;;-1.00;99.90;;;;;;5088563;28;20307;-64
2023/12/05 00:20:09;;;;;;;18.00;12.93;;;-1.00;99.90;;;;;;5084881;28;20242;-65
2023/12/05 00:22:37;;;;;;;19.03;12.30;;;-1.00;99.90;;;;;;5073693;28;20657;-64
2023/12/05 00:25:04;;;;;;;16.73;12.60;;;-1.00;99.90;;;;;;5088419;28;20199;-64
2023/12/05 00:27:31;;;;;;;20.23;13.37;;;-1.00;99.90;;;;;;5087838;28;20334;-64
2023/12/05 00:29:58;;;;;;;17.93;12.97;;;-1.00;99.90;;;;;;5088291;28;20206;-64
2023/12/05 00:32:25;;;;;;;16.03;12.23;;;-1.00;99.90;;;;;;5087806;28;20198;-64
2023/12/05 00:34:52;;;;;;;19.27;13.10;;;-1.00;99.90;;;;;;5087541;28;20691;-64
2023/12/05 00:37:20;;;;;;;17.63;12.13;;;-1.00;99.90;;;;;;5087930;28;21007;-64
2023/12/05 00:39:47;;;;;;;19.20;12.70;;;-1.00;99.90;;;;;;5087344;28;20214;-64
2023/12/05 00:42:14;;;;;;;16.43;11.77;;;-1.00;99.90;;;;;;5087617;28;20285;-64
2023/12/05 00:44:41;;;;;;;19.47;12.97;;;-1.00;99.90;;;;;;5087981;28;20199;-64
2023/12/05 00:47:07;;;;;;;18.40;12.53;;;-1.10;99.90;;;;;;5087701;28;20297;-64
2023/12/05 00:49:35;;;;;;;17.27;12.40;;;-1.00;99.90;;;;;;5087592;28;20289;-64
2023/12/05 00:52:02;;;;;;;17.83;12.63;;;-1.00;99.90;;;;;;5078549;28;20230;-64
2023/12/05 00:54:30;;;;;;;17.20;12.23;;;-1.00;99.90;;;;;;5087731;28;20199;-65
2023/12/05 00:56:57;;;;;;;16.37;12.40;;;-1.00;99.90;;;;;;5086998;28;20800;-65
2023/12/05 00:59:24;;;;;;;17.10;11.63;;;-1.00;99.90;;;;;;5087446;28;20297;-65
2023/12/05 01:01:51;;;;;;;19.23;12.83;;;-0.90;99.90;;;;;;5079659;28;20202;-65
2023/12/05 01:04:18;;;;;;;18.00;12.27;;;-1.00;99.90;;;;;;5067498;28;20201;-65
2023/12/05 01:06:45;;;;;;;16.80;12.20;;;-1.00;99.90;;;;;;5067170;28;20214;-65
2023/12/05 01:09:12;;;;;;;17.67;12.23;;;-1.00;99.90;;;;;;5066911;28;20330;-65
2023/12/05 01:11:41;;;;;;;18.07;12.13;;;-1.00;99.90;;;;;;5073062;28;20199;-65
2023/12/05 01:14:07;;;;;;;16.27;12.07;;;-1.00;99.90;;;;;;5087483;28;20655;-65
2023/12/05 01:16:34;;;;;;;17.30;12.27;;;-1.00;99.90;;;;;;5087381;28;20299;-65
2023/12/05 01:19:01;;;;;;;16.00;11.90;;;-1.00;99.90;;;;;;5087627;28;20214;-65
2023/12/05 01:21:28;;;;;;;18.70;12.80;;;-1.00;99.90;;;;;;5072756;28;20290;-64
2023/12/05 01:23:55;;;;;;;17.50;12.10;;;-1.00;99.90;;;;;;5087386;28;20297;-65
2023/12/05 01:26:22;;;;;;;18.53;12.63;;;-1.00;99.90;;;;;;5087128;28;20311;-65
2023/12/05 01:28:50;;;;;;;18.83;12.93;;;-1.00;99.90;;;;;;5086992;28;20298;-65
2023/12/05 01:31:17;;;;;;;16.93;12.47;;;-1.00;99.90;;;;;;5086876;28;20203;-65
2023/12/05 01:33:44;;;;;;;16.70;12.00;;;-1.00;99.90;;;;;;5087352;28;20251;-65
2023/12/05 01:36:11;;;;;;;17.33;12.30;;;-1.00;99.90;;;;;;5106008;28;20245;-65
2023/12/05 01:38:39;;;;;;;18.53;12.13;;;-1.00;99.90;;;;;;5107370;28;20236;-65
2023/12/05 01:41:07;;;;;;;16.07;12.20;;;-1.00;99.90;;;;;;5106545;28;20214;-65
2023/12/05 01:43:33;;;;;;;16.57;12.03;;;-1.00;99.90;;;;;;5086127;28;20211;-65
2023/12/05 01:46:03;;;;;;;19.77;12.83;;;-1.00;99.90;;;;;;5086791;28;20745;-65
2023/12/05 01:48:31;;;;;;;17.23;12.47;;;-1.00;99.90;;;;;;5087341;28;20207;-65
2023/12/05 01:51:00;;;;;;;18.03;12.97;;;-0.90;99.90;;;;;;5087062;28;20218;-65
2023/12/05 01:53:27;;;;;;;17.80;13.17;;;-1.00;99.90;;;;;;5079176;28;20210;-65
2023/12/05 01:55:55;;;;;;;19.40;12.60;;;-1.00;99.90;;;;;;5086667;28;20203;-65
2023/12/05 01:58:22;;;;;;;17.50;12.07;;;-1.00;99.90;;;;;;5087174;28;20261;-65
2023/12/05 02:00:49;;;;;;;19.43;13.07;;;-0.90;99.90;;;;;;5086972;28;20289;-64
2023/12/05 02:03:17;;;;;;;18.70;12.80;;;-0.90;99.90;;;;;;5086943;28;20623;-64
2023/12/05 02:05:44;;;;;;;18.87;12.93;;;-0.90;99.90;;;;;;5086763;28;20570;-65
2023/12/05 02:08:13;;;;;;;19.77;12.83;;;-0.90;99.90;;;;;;5086775;28;20859;-65
2023/12/05 02:10:40;;;;;;;17.60;11.77;;;-0.90;99.90;;;;;;5086953;28;20306;-65
2023/12/05 02:13:07;;;;;;;17.50;12.60;;;-0.90;99.90;;;;;;5069839;28;20215;-64
2023/12/05 02:15:33;;;;;;;14.43;11.83;;;-0.90;99.90;;;;;;5066364;28;20670;-65
2023/12/05 02:18:09;;;;;;;18.50;12.87;;;-0.90;99.90;;;;;;5066342;28;20322;-65
2023/12/05 02:20:44;;;;;;;18.47;12.63;;;-0.90;99.90;;;;;;5066748;28;20282;-65
2023/12/05 02:23:26;;;;;;;16.60;12.10;;;-0.90;99.90;;;;;;5085276;28;20205;-65
2023/12/05 02:26:09;;;;;;;17.67;12.40;;;-0.90;99.90;;;;;;5086755;28;20194;-65
2023/12/05 02:28:38;;;;;;;18.43;12.80;;;-0.90;99.90;;;;;;5086761;28;20199;-65
2023/12/05 02:31:05;;;;;;;17.30;12.30;;;-0.90;99.90;;;;;;5086552;28;20309;-65
2023/12/05 02:33:33;;;;;;;15.33;11.57;;;-0.90;99.90;;;;;;5086471;28;20660;-65
2023/12/05 02:36:09;;;;;;;18.47;12.90;;;-1.00;99.90;;;;;;5086439;28;20295;-65
2023/12/05 02:38:43;;;;;;;17.37;12.33;;;-0.90;99.90;;;;;;5086624;28;20218;-65
2023/12/05 02:41:20;;;;;;;18.67;12.33;;;-1.00;99.90;;;;;;5084822;28;20294;-65
2023/12/05 02:43:53;;;;;;;17.43;12.47;;;-1.00;99.90;;;;;;5086766;28;20280;-65
2023/12/05 02:46:21;;;;;;;19.73;13.00;;;-1.00;99.90;;;;;;5086379;28;20193;-65
2023/12/05 02:48:50;;;;;;;18.87;12.63;;;-1.00;99.90;;;;;;5086361;28;20736;-65
2023/12/05 02:51:17;;;;;;;17.73;12.77;;;-1.00;99.90;;;;;;5086130;28;20213;-65
2023/12/05 02:53:44;;;;;;;18.40;12.90;;;-0.90;99.90;;;;;;5066227;28;20299;-65
2023/12/05 02:56:11;;;;;;;16.63;12.87;;;-0.90;99.90;;;;;;5065741;28;20767;-65
2023/12/05 02:58:38;;;;;;;19.90;12.63;;;-1.00;99.90;;;;;;5066064;28;20338;-65
2023/12/05 03:01:07;;;;;;;20.10;13.73;;;-0.90;99.90;;;;;;5066003;28;20204;-65
2023/12/05 03:03:34;;;;;;;16.73;12.07;;;-0.90;99.90;;;;;;5068139;28;20286;-64
2023/12/05 03:06:00;;;;;;;15.97;12.03;;;-0.90;99.90;;;;;;5079338;28;20596;-64
2023/12/05 03:08:27;;;;;;;17.80;12.33;;;-1.00;99.90;;;;;;5100433;28;20224;-65
2023/12/05 03:10:54;;;;;;;17.40;12.47;;;-0.90;99.90;;;;;;5098448;28;20284;-65
2023/12/05 03:13:21;;;;;;;18.57;13.27;;;-1.00;99.90;;;;;;5099012;28;20194;-65
2023/12/05 03:15:48;;;;;;;18.57;12.33;;;-0.90;99.90;;;;;;5094484;28;21256;-65
2023/12/05 03:18:16;;;;;;;18.47;13.13;;;-0.90;99.90;;;;;;5082300;28;20229;-65
2023/12/05 03:20:43;;;;;;;18.43;12.50;;;-1.00;99.90;;;;;;5083463;28;20710;-65
2023/12/05 03:23:10;;;;;;;18.13;12.70;;;-0.90;99.90;;;;;;5081596;28;20203;-65
2023/12/05 03:25:36;;;;;;;16.43;12.20;;;-1.00;99.90;;;;;;5088920;28;20290;-65
2023/12/05 03:28:03;;;;;;;16.90;12.07;;;-0.90;99.90;;;;;;5088380;28;20345;-65
2023/12/05 03:30:30;;;;;;;17.53;12.37;;;-0.90;99.90;;;;;;5070903;28;20304;-65
2023/12/05 03:32:57;;;;;;;17.27;12.73;;;-0.90;99.90;;;;;;5080260;28;20234;-65
2023/12/05 03:35:25;;;;;;;18.17;12.77;;;-0.90;99.90;;;;;;5086662;28;20253;-65
2023/12/05 03:37:52;;;;;;;17.60;12.27;;;-0.90;99.90;;;;;;5083541;28;20310;-65
2023/12/05 03:40:20;;;;;;;17.07;12.63;;;-0.90;99.90;;;;;;5087205;28;20217;-65
2023/12/05 03:42:46;;;;;;;17.40;12.37;;;-0.90;99.90;;;;;;5084833;28;20923;-65
2023/12/05 03:45:13;;;;;;;19.60;13.07;;;-0.90;99.90;;;;;;5086868;28;20198;-65
2023/12/05 03:47:43;;;;;;;18.37;12.20;;;-0.90;99.90;;;;;;5087134;28;20758;-65
2023/12/05 03:50:10;;;;;;;19.03;12.47;;;-0.90;99.90;;;;;;5068754;28;20237;-65
2023/12/05 03:52:38;;;;;;;19.47;13.17;;;-0.90;99.90;;;;;;5078211;28;20234;-65
2023/12/05 03:55:15;;;;;;;17.63;11.57;;;-0.90;99.90;;;;;;5107148;28;20270;-67
2023/12/05 03:57:42;;;;;;;18.60;12.87;;;-0.90;99.90;;;;;;5092294;28;20238;-66
2023/12/05 04:00:10;;;;;;;15.20;12.17;;;-0.90;99.90;;;;;;5080200;28;20749;-65
2023/12/05 04:02:37;;;;;;;16.70;12.83;;;-0.90;99.90;;;;;;5068902;28;20291;-65
2023/12/05 04:05:04;;;;;;;19.60;13.13;;;-0.90;99.90;;;;;;5067882;28;20829;-66
2023/12/05 04:07:30;;;;;;;17.10;12.63;;;-0.90;99.90;;;;;;5066452;28;20208;-66
2023/12/05 04:09:59;;;;;;;16.30;12.17;;;-0.80;99.90;;;;;;5066504;28;20656;-66
2023/12/05 04:12:25;;;;;;;18.00;12.60;;;-0.80;99.90;;;;;;5067071;28;20207;-66
2023/12/05 04:14:52;;;;;;;17.43;12.63;;;-0.80;99.90;;;;;;5065961;28;20199;-66
2023/12/05 04:17:19;;;;;;;18.23;13.10;;;-0.90;99.90;;;;;;5067293;28;20219;-66
2023/12/05 04:19:46;;;;;;;17.97;12.93;;;-0.80;99.90;;;;;;5067168;28;20228;-66
2023/12/05 04:22:13;;;;;;;17.17;13.03;;;-0.80;99.90;;;;;;5070217;28;20212;-66
2023/12/05 04:24:40;;;;;;;18.87;12.43;;;-0.80;99.90;;;;;;5088334;28;20213;-66
2023/12/05 04:27:08;;;;;;;19.50;12.87;;;-0.80;99.90;;;;;;5087859;28;20222;-66
2023/12/05 04:29:35;;;;;;;20.10;13.80;;;-0.80;99.90;;;;;;5088314;28;20250;-66
2023/12/05 04:32:02;;;;;;;16.63;12.90;;;-0.80;99.90;;;;;;5087843;28;20212;-66
2023/12/05 04:34:29;;;;;;;18.03;13.00;;;-0.90;99.90;;;;;;5087615;28;20247;-65
2023/12/05 04:36:56;;;;;;;18.77;12.97;;;-0.90;99.90;;;;;;5088018;28;20609;-65
2023/12/05 04:39:23;;;;;;;17.93;12.70;;;-0.80;99.90;;;;;;5087586;28;20237;-65
2023/12/05 04:41:49;;;;;;;18.00;12.70;;;-0.80;99.90;;;;;;5087442;28;20301;-66
2023/12/05 04:44:18;;;;;;;18.17;12.67;;;-0.80;99.90;;;;;;5088045;28;20298;-65
2023/12/05 04:46:44;;;;;;;17.53;12.73;;;-0.90;99.90;;;;;;5087676;28;20203;-66
2023/12/05 04:49:11;;;;;;;17.53;13.27;;;-0.90;99.90;;;;;;5088095;28;20207;-64
2023/12/05 04:51:38;;;;;;;17.17;12.73;;;-0.90;99.90;;;;;;5087587;28;20954;-63
2023/12/05 04:54:05;;;;;;;17.63;12.43;;;-0.80;99.90;;;;;;5105502;28;20209;-64
2023/12/05 04:56:32;;;;;;;19.47;12.87;;;-0.80;99.90;;;;;;5107389;28;20665;-64
2023/12/05 04:58:59;;;;;;;18.33;12.93;;;-0.80;99.90;;;;;;5107873;28;20240;-64
2023/12/05 05:01:27;;;;;;;18.20;12.57;;;-0.80;99.90;;;;;;5107889;28;20258;-63
2023/12/05 05:03:54;;;;;;;18.57;12.47;;;-0.80;99.90;;;;;;5107327;28;20830;-64
2023/12/05 05:06:21;;;;;;;17.00;12.40;;;-0.80;99.90;;;;;;5107985;28;20206;-64
2023/12/05 05:08:48;;;;;;;18.07;13.13;;;-0.80;99.90;;;;;;5107492;28;20305;-64
2023/12/05 05:11:15;;;;;;;18.33;12.93;;;-0.80;99.90;;;;;;5107225;28;20718;-64
2023/12/05 05:13:43;;;;;;;17.50;12.77;;;-0.80;99.90;;;;;;5107676;28;20255;-63
2023/12/05 05:16:11;;;;;;;17.50;12.80;;;-0.80;99.90;;;;;;5107870;28;20206;-63
2023/12/05 05:18:39;;;;;;;18.13;12.73;;;-0.80;99.90;;;;;;5107350;28;20803;-64
2023/12/05 05:21:06;;;;;;;18.83;13.37;;;-0.80;99.90;;;;;;5088596;28;20231;-64
2023/12/05 05:23:34;;;;;;;16.83;12.30;;;-0.80;99.90;;;;;;5086954;28;20780;-63
2023/12/05 05:26:01;;;;;;;17.07;12.53;;;-0.80;99.90;;;;;;5086850;28;20289;-63
2023/12/05 05:28:28;;;;;;;17.13;12.27;;;-0.80;99.90;;;;;;5086759;28;20297;-63
2023/12/05 05:30:55;;;;;;;18.40;12.47;;;-0.80;99.90;;;;;;5086652;28;20298;-63
2023/12/05 05:33:22;;;;;;;20.13;13.97;;;-0.80;99.90;;;;;;5087097;28;20310;-63
2023/12/05 05:35:50;;;;;;;18.50;13.20;;;-0.80;99.90;;;;;;5087162;28;20214;-63
2023/12/05 05:38:17;;;;;;;17.50;12.60;;;-0.80;99.90;;;;;;5086813;28;20290;-64
2023/12/05 05:40:44;;;;;;;18.43;13.37;;;-0.80;99.90;;;;;;5086895;28;20340;-63
2023/12/05 05:43:11;;;;;;;17.77;12.83;;;-0.80;99.90;;;;;;5086783;28;20230;-64
2023/12/05 05:45:38;;;;;;;20.00;13.37;;;-0.80;99.90;;;;;;5087272;28;20210;-63
2023/12/05 05:48:05;;;;;;;18.73;13.07;;;-0.80;99.90;;;;;;5086502;28;20206;-64
2023/12/05 05:50:32;;;;;;;18.93;13.03;;;-0.80;99.90;;;;;;5086576;28;20713;-63
2023/12/05 05:53:01;;;;;;;18.00;13.50;;;-0.80;99.90;;;;;;5095377;28;20206;-64
2023/12/05 05:55:27;;;;;;;19.60;13.43;;;-0.80;99.90;;;;;;5107298;28;20233;-64
2023/12/05 05:57:54;;;;;;;17.10;12.93;;;-0.80;99.90;;;;;;5106706;28;20292;-63
2023/12/05 06:00:21;;;;;;;18.23;12.40;;;-0.80;99.90;;;;;;5083890;28;20257;-63
2023/12/05 06:02:48;;;;;;;18.07;12.50;;;-0.80;99.90;;;;;;5065592;28;20721;-64
2023/12/05 06:05:15;;;;;;;19.10;13.23;;;-0.80;99.90;;;;;;5066277;28;20210;-64
2023/12/05 06:07:42;;;;;;;17.20;12.50;;;-0.80;99.90;;;;;;5066576;28;20242;-64
2023/12/05 06:10:11;;;;;;;16.53;12.60;;;-0.80;99.90;;;;;;5066716;28;20257;-64
2023/12/05 06:12:38;;;;;;;17.73;13.03;;;-0.80;99.90;;;;;;5066048;28;20215;-64
2023/12/05 06:15:05;;;;;;;15.73;12.47;;;-0.80;99.90;;;;;;5066346;28;20207;-64
2023/12/05 06:17:32;;;;;;;17.07;12.93;;;-0.80;99.90;;;;;;5066260;28;20290;-64
2023/12/05 06:19:59;;;;;;;17.33;12.50;;;-0.80;99.90;;;;;;5066235;28;20235;-63
2023/12/05 06:22:26;;;;;;;17.33;13.57;;;-0.80;99.90;;;;;;5070196;28;20242;-65
2023/12/05 06:24:53;;;;;;;18.00;13.77;;;-0.80;99.90;;;;;;5086360;28;20215;-64
2023/12/05 06:27:21;;;;;;;18.43;13.20;;;-0.80;99.90;;;;;;5086155;28;20231;-64
2023/12/05 06:29:48;;;;;;;17.47;13.20;;;-0.80;99.90;;;;;;5086935;28;20290;-64
2023/12/05 06:32:15;;;;;;;19.67;13.30;;;-0.70;99.90;;;;;;5086454;28;20909;-64
2023/12/05 06:34:42;;;;;;;17.57;12.03;;;-0.70;99.90;;;;;;5085866;28;20195;-64
2023/12/05 06:37:09;;;;;;;18.83;12.13;;;-0.70;99.90;;;;;;5086279;28;20297;-64
2023/12/05 06:39:36;;;;;;;16.80;12.67;;;-0.70;99.90;;;;;;5089673;28;20223;-65
2023/12/05 06:42:03;;;;;;;18.10;12.43;;;-0.70;99.90;;;;;;5090287;28;20298;-65
2023/12/05 06:44:31;;;;;;;16.83;13.07;;;-0.70;99.90;;;;;;5090284;28;20564;-64
2023/12/05 06:46:58;;;;;;;18.53;12.63;;;-0.70;99.90;;;;;;5090425;28;20248;-64
2023/12/05 06:49:25;;;;;;;17.97;12.70;;;-0.70;99.90;;;;;;5090331;28;20238;-65
2023/12/05 06:51:56;;;;;;;16.90;12.87;;;-0.70;99.90;;;;;;5089894;28;20309;-64
2023/12/05 06:54:24;;;;;;;19.27;13.17;;;-0.70;99.90;;;;;;5070264;28;20203;-64
2023/12/05 06:56:51;;;;;;;18.13;12.53;;;-0.70;99.90;;;;;;5069510;28;20241;-65
2023/12/05 06:59:17;;;;;;;17.03;12.40;;;-0.70;99.90;;;;;;5069603;28;20338;-64
2023/12/05 07:01:45;;;;;;;18.03;12.80;;;-0.70;99.90;;;;;;5069493;28;20314;-64
2023/12/05 07:04:13;;;;;;;16.43;11.73;;;-0.60;99.90;;;;;;5070051;28;20552;-64
2023/12/05 07:06:40;;;;;;;17.67;12.20;;;-0.70;99.90;;;;;;5069938;28;20253;-65
2023/12/05 07:09:07;;;;;;;16.23;11.77;;;-0.60;99.90;;;;;;5069301;28;20362;-64
2023/12/05 07:11:34;;;;;;;16.27;12.10;;;-0.60;99.90;;;;;;5071049;28;20974;-65
2023/12/05 07:14:00;;;;;;;15.27;11.93;;;-0.60;99.90;;;;;;5089818;28;20302;-64
2023/12/05 07:16:27;;;;;;;15.07;12.17;;;-0.60;99.90;;;;;;5090035;28;20247;-64
2023/12/05 07:18:55;;;;;;;15.00;11.43;;;-0.60;99.90;;;;;;5089450;28;20912;-64
2023/12/05 07:21:22;;;;;;;16.83;11.93;;;-0.60;99.90;;;;;;5069711;28;20290;-64
2023/12/05 07:23:49;;;;;;;14.17;11.80;;;-0.60;99.90;;;;;;5084773;28;20210;-64
2023/12/05 07:26:16;;;;;;;16.13;12.17;;;-0.60;99.90;;;;;;5089429;28;20321;-64
2023/12/05 07:28:44;;;;;;;16.27;12.00;;;-0.70;99.90;;;;;;5089500;28;20293;-64
2023/12/05 07:31:12;;;;;;;16.53;12.40;;;-0.60;99.90;;;;;;5089275;28;20695;-64
2023/12/05 07:33:38;;;;;;;18.83;12.90;;;-0.60;99.90;;;;;;5089768;28;20678;-64
2023/12/05 07:36:08;;;;;;;16.90;11.43;;;-0.60;99.90;;;;;;5088743;28;20748;-64
2023/12/05 07:38:35;;;;;;;17.33;11.50;;;-0.60;99.90;;;;;;5089688;28;20198;-65
2023/12/05 07:41:02;;;;;;;17.20;11.80;;;-0.60;99.90;;;;;;5088889;28;20322;-64
2023/12/05 07:43:29;;;;;;;16.57;11.83;;;-0.60;99.90;;;;;;5089440;28;20210;-64
2023/12/05 07:45:56;;;;;;;17.77;11.87;;;-0.60;99.90;;;;;;5089071;28;20293;-64
2023/12/05 07:48:23;;;;;;;16.67;12.30;;;-0.60;99.90;;;;;;5088960;28;20217;-64
2023/12/05 07:50:50;;;;;;;15.13;12.00;;;-0.50;99.90;;;;;;5087628;28;20242;-64
2023/12/05 07:53:18;;;;;;;17.93;12.60;;;-0.60;99.90;;;;;;5088776;28;20684;-64
2023/12/05 07:55:45;;;;;;;18.60;12.63;;;-0.50;99.90;;;;;;5089118;28;20231;-64
2023/12/05 07:58:12;;;;;;;14.90;11.67;;;-0.50;99.90;;;;;;5088732;28;20293;-64
2023/12/05 08:00:39;;;;;;;15.73;12.30;;;-0.50;99.90;;;;;;5088919;28;20326;-65
2023/12/05 08:03:06;;;;;;;16.10;12.47;;;-0.50;99.90;;;;;;5088869;28;20213;-64
2023/12/05 08:05:33;;;;;;;15.33;11.97;;;-0.50;99.90;;;;;;5088831;28;20215;-64
2023/12/05 08:08:00;;;;;;;17.03;11.87;;;-0.50;99.90;;;;;;5088187;28;20242;-65
2023/12/05 08:10:28;;;;;;;16.17;12.43;;;-0.40;99.90;;;;;;5088809;28;20281;-64
2023/12/05 08:12:55;;;;;;;17.23;12.47;;;-0.40;99.90;;;;;;5088167;28;20305;-64
2023/12/05 08:15:22;;;;;;;13.80;11.37;;;-0.40;99.90;;;;;;5088356;28;20317;-64
2023/12/05 08:17:49;;;;;;;14.07;11.60;;;-0.40;99.90;;;;;;5088193;28;20306;-64
2023/12/05 08:20:16;;;;;;;16.13;12.27;;;-0.40;99.90;;;;;;5087924;28;20231;-64
2023/12/05 08:22:43;;;;;;;16.80;12.30;;;-0.40;99.90;;;;;;5088536;28;20294;-65
2023/12/05 08:25:11;;;;;;;15.77;11.57;;;-0.40;99.90;;;;;;5088538;28;20234;-64
2023/12/05 08:27:39;;;;;;;16.33;12.33;;;-0.40;99.90;;;;;;5088167;28;20288;-64
2023/12/05 08:30:08;;;;;;;13.47;11.37;;;-0.40;99.90;;;;;;5088267;28;20230;-64
2023/12/05 08:32:35;;;;;;;14.53;12.00;;;-0.30;99.90;;;;;;5088388;28;20242;-64
2023/12/05 08:35:02;;;;;;;14.80;12.03;;;-0.30;99.90;;;;;;5087821;28;20289;-64
2023/12/05 08:37:31;;;;;;;16.40;11.87;;;-0.30;99.90;;;;;;5087914;28;20245;-65
2023/12/05 08:39:58;;;;;;;16.93;12.80;;;-0.30;99.90;;;;;;5087617;28;20229;-64
2023/12/05 08:42:25;;;;;;;16.07;12.03;;;-0.30;99.90;;;;;;5087806;28;20252;-64
2023/12/05 08:44:53;;;;;;;17.57;11.63;;;-0.30;99.90;;;;;;5088168;28;20211;-65
2023/12/05 08:47:20;;;;;;;14.67;11.83;;;-0.30;99.90;;;;;;5088230;28;20207;-65
2023/12/05 08:49:47;;;;;;;16.60;12.07;;;-0.20;99.90;;;;;;5087700;28;20290;-64
2023/12/05 08:52:14;;;;;;;15.33;12.07;;;-0.20;99.90;;;;;;5090186;28;20297;-65
2023/12/05 08:54:40;;;;;;;16.83;12.23;;;-0.20;99.90;;;;;;5107919;28;20245;-64
2023/12/05 08:57:07;;;;;;;20.27;12.73;;;-0.20;99.90;;;;;;5108051;28;20293;-64
2023/12/05 08:59:34;;;;;;;16.17;12.47;;;-0.20;99.90;;;;;;5108121;28;20253;-64
2023/12/05 09:02:03;;;;;;;18.87;12.90;;;-0.20;99.90;;;;;;5107243;28;20652;-64
2023/12/05 09:04:29;;;;;;;16.63;12.23;;;-0.20;99.90;;;;;;5102419;28;20322;-64
2023/12/05 09:06:56;;;;;;;17.27;12.23;;;-0.10;99.90;;;;;;5087445;28;20202;-64
2023/12/05 09:09:23;;;;;;;16.20;12.07;;;-0.10;99.90;;;;;;5087480;28;20321;-64
2023/12/05 09:11:50;;;;;;;16.67;12.43;;;-0.10;99.90;;;;;;5087394;28;20210;-64
2023/12/05 09:14:17;;;;;;;15.53;12.10;;;-0.10;99.90;;;;;;5087588;28;20297;-64
2023/12/05 09:16:44;;;;;;;17.63;13.10;;;0.00;99.90;;;;;;5087285;28;20234;-64
2023/12/05 09:19:12;;;;;;;16.77;12.43;;;0.00;99.90;;;;;;5087659;28;20233;-64
2023/12/05 09:21:39;;;;;;;15.50;12.40;;;0.10;99.90;;;;;;5087476;28;20302;-64
2023/12/05 09:24:09;;;;;;;15.17;12.43;;;0.10;99.90;;;;;;5086782;28;20297;-64
2023/12/05 09:26:35;;;;;;;14.67;12.07;;;0.10;99.90;;;;;;5086857;28;21038;-64
2023/12/05 09:29:02;;;;;;;16.37;11.87;;;0.20;99.90;;;;;;5087186;28;20635;-65
2023/12/05 09:31:30;;;;;;;17.53;12.73;;;0.20;99.90;;;;;;5087330;28;20705;-64
2023/12/05 09:33:57;;;;;;;18.07;12.57;;;0.30;99.90;;;;;;5086726;28;20218;-64
2023/12/05 09:36:25;;;;;;;16.03;12.60;;;0.30;99.90;;;;;;5087266;28;20310;-64
2023/12/05 09:38:52;;;;;;;16.70;12.40;;;0.30;99.90;;;;;;5087094;28;20253;-64
2023/12/05 09:41:20;;;;;;;17.97;12.93;;;0.30;99.90;;;;;;5087269;28;20320;-64
2023/12/05 09:43:49;;;;;;;18.53;12.83;;;0.30;99.90;;;;;;5086922;28;20731;-65
2023/12/05 09:46:21;;;;;;;16.20;12.53;;;0.30;99.90;;;;;;5087281;28;20202;-64
2023/12/05 09:48:50;;;;;;;16.40;12.80;;;0.30;99.90;;;;;;5087279;28;20199;-65
2023/12/05 09:51:18;;;;;;;16.73;12.67;;;0.30;99.90;;;;;;5087213;28;20206;-64
2023/12/05 09:53:47;;;;;;;15.40;12.00;;;0.20;99.90;;;;;;5101834;28;20682;-64
2023/12/05 09:56:15;;;;;;;15.90;12.40;;;0.20;99.90;;;;;;5107195;28;20236;-64
2023/12/05 09:58:44;;;;;;;18.37;12.10;;;0.20;99.90;;;;;;5107130;28;20308;-65
2023/12/05 10:01:14;;;;;;;14.73;12.00;;;0.20;99.90;;;;;;5097773;28;20325;-64
2023/12/05 10:03:42;;;;;;;13.97;11.27;;;0.20;99.90;;;;;;5086547;28;20652;-64
2023/12/05 10:06:11;;;;;;;15.83;11.90;;;0.20;99.90;;;;;;5086926;28;20202;-64
2023/12/05 10:08:38;;;;;;;13.77;11.27;;;0.20;99.90;;;;;;5078206;28;20235;-64
2023/12/05 10:11:10;;;;;;;15.83;11.93;;;0.20;99.90;;;;;;5066658;28;20665;-64
2023/12/05 10:13:39;;;;;;;16.57;11.90;;;0.20;99.90;;;;;;5068443;28;20318;-64
2023/12/05 10:16:07;;;;;;;14.37;11.97;;;0.20;99.90;;;;;;5070453;28;20210;-64
2023/12/05 10:18:36;;;;;;;14.27;11.70;;;0.20;99.90;;;;;;5070727;28;20214;-64
2023/12/05 10:21:03;;;;;;;14.87;12.00;;;0.20;99.90;;;;;;5088248;28;20325;-64
2023/12/05 10:23:30;;;;;;;13.37;10.50;;;0.20;99.90;;;;;;5090805;28;20202;-64
2023/12/05 10:25:57;;;;;;;14.63;11.33;;;0.20;99.90;;;;;;5090334;28;20226;-64
2023/12/05 10:28:25;;;;;;;14.07;11.07;;;0.20;99.90;;;;;;5090704;28;20210;-64
2023/12/05 10:30:52;;;;;;;15.73;11.87;;;0.20;99.90;;;;;;5090713;28;20298;-64
2023/12/05 10:33:21;;;;;;;16.47;12.00;;;0.30;99.90;;;;;;5090364;28;20329;-64
2023/12/05 10:35:49;;;;;;;14.60;12.07;;;0.30;99.90;;;;;;5089972;28;20199;-64
2023/12/05 10:38:18;;;;;;;14.33;10.50;;;0.30;99.90;;;;;;5090696;28;20211;-64
2023/12/05 10:40:55;;;;;;;13.50;11.43;;;0.30;99.90;;;;;;5090299;28;20229;-64
2023/12/05 10:43:23;;;;;;;15.93;11.73;;;0.30;99.90;;;;;;5090233;28;20278;-64
2023/12/05 10:45:54;;;;;;;13.53;11.70;;;0.30;99.90;;;;;;5090119;28;20591;-64
2023/12/05 10:48:24;;;;;;;13.57;11.07;;;0.30;99.90;;;;;;5090412;28;20310;-64
2023/12/05 10:50:52;;;;;;;13.63;11.63;;;0.30;99.90;;;;;;5090103;28;20256;-64
2023/12/05 10:53:19;;;;;;;14.57;12.07;;;0.30;99.90;;;;;;5101513;28;20224;-64
2023/12/05 10:55:46;;;;;;;13.43;10.67;;;0.30;99.90;;;;;;5110245;28;20206;-64
2023/12/05 10:58:14;;;;;;;14.27;11.20;;;0.30;99.90;;;;;;5094766;28;20293;-64
2023/12/05 11:00:42;;;;;;;15.83;11.97;;;0.30;99.90;;;;;;5089999;28;20349;-64
2023/12/05 11:03:13;;;;;;;14.77;11.23;;;0.40;99.90;;;;;;5090046;28;20317;-64
2023/12/05 11:05:40;;;;;;;13.23;10.73;;;0.30;99.90;;;;;;5089584;28;20249;-64
2023/12/05 11:08:07;;;;;;;13.17;10.90;;;0.40;99.90;;;;;;5089835;28;20234;-64
2023/12/05 11:10:34;;;;;;;14.03;10.87;;;0.40;99.90;;;;;;5089965;28;20234;-64
2023/12/05 11:13:02;;;;;;;14.67;11.70;;;0.40;99.90;;;;;;5089432;28;20293;-64
2023/12/05 11:15:31;;;;;;;15.47;12.10;;;0.40;99.90;;;;;;5089675;28;20242;-64
2023/12/05 11:18:00;;;;;;;14.53;11.90;;;0.40;99.90;;;;;;5089494;28;20299;-65
2023/12/05 11:20:39;;;;;;;15.20;11.87;;;0.50;99.90;;;;;;5089556;28;20611;-64
2023/12/05 11:23:22;;;;;;;16.43;11.97;;;0.40;99.90;;;;;;5099196;28;20217;-64
2023/12/05 11:26:01;;;;;;;14.93;11.13;;;0.40;99.90;;;;;;5109504;28;20547;-64
2023/12/05 11:28:43;;;;;;;14.00;11.57;;;0.40;99.90;;;;;;5109888;28;20190;-64
2023/12/05 11:31:20;;;;;;;14.67;11.30;;;0.50;99.90;;;;;;5109854;28;20196;-64
2023/12/05 11:33:58;;;;;;;14.57;11.30;;;0.40;99.90;;;;;;5109867;28;20277;-64
2023/12/05 11:36:37;;;;;;;13.53;12.13;;;0.50;99.90;;;;;;5089475;28;20241;-64
2023/12/05 11:39:04;;;;;;;16.93;12.47;;;0.50;99.90;;;;;;5089134;28;20701;-64
2023/12/05 11:41:32;;;;;;;15.93;12.27;;;0.50;99.90;;;;;;5088898;28;20223;-64
2023/12/05 11:44:18;;;;;;;14.67;12.17;;;0.50;99.90;;;;;;5088885;28;20772;-64
2023/12/05 11:46:47;;;;;;;16.13;12.80;;;0.50;99.90;;;;;;5089309;28;20202;-64
2023/12/05 11:49:28;;;;;;;15.80;12.27;;;0.50;99.90;;;;;;5089130;28;20221;-64
2023/12/05 11:52:09;;;;;;;14.53;11.60;;;0.50;99.90;;;;;;5089173;28;20201;-64
2023/12/05 11:54:36;;;;;;;15.63;11.90;;;0.60;99.90;;;;;;5085435;28;20225;-65
2023/12/05 11:57:14;;;;;;;16.43;12.63;;;0.60;99.90;;;;;;5088504;28;20206;-64
2023/12/05 11:59:42;;;;;;;15.63;12.47;;;0.60;99.90;;;;;;5088942;28;20273;-64
2023/12/05 12:02:11;;;;;;;15.27;12.17;;;0.70;99.90;;;;;;5072141;28;20281;-64
2023/12/05 12:04:39;;;;;;;16.73;12.40;;;0.60;99.90;;;;;;5068958;28;20227;-64
2023/12/05 12:07:08;;;;;;;16.13;13.00;;;0.60;99.90;;;;;;5069129;28;20302;-64
2023/12/05 12:09:39;;;;;;;17.60;12.90;;;0.70;99.90;;;;;;5068482;28;20263;-64
2023/12/05 12:12:07;;;;;;;19.63;14.00;;;0.60;99.90;;;;;;5074503;28;20306;-64
2023/12/05 12:14:34;;;;;;;16.20;12.60;;;0.70;99.90;;;;;;5089047;28;20206;-65
2023/12/05 12:17:05;;;;;;;20.50;15.57;;;0.60;99.90;;;;;;5088485;28;20749;-64
2023/12/05 12:19:32;;;;;;;17.37;13.43;;;0.60;99.90;;;;;;5088697;28;20205;-64
2023/12/05 12:22:07;;;;;;;13.63;11.87;;;0.60;99.90;;;;;;5088801;28;20661;-64
2023/12/05 12:24:34;;;;;;;15.53;12.37;;;0.60;99.90;;;;;;5108782;28;20716;-64
2023/12/05 12:27:01;;;;;;;13.17;11.27;;;0.60;99.90;;;;;;5108360;27;20226;-64
2023/12/05 12:29:29;;;;;;;15.27;11.97;;;0.60;99.90;;;;;;5108563;28;20721;-64
2023/12/05 12:32:07;;;;;;;13.33;11.07;;;0.60;99.90;;;;;;5108748;28;20285;-64
2023/12/05 12:34:34;;;;;;;14.90;11.77;;;0.60;99.90;;;;;;5102064;28;20197;-64